sensor_id;sensor_type;location;lat;lon;timestamp;pressure;altitude;pressure_sealevel;temperature;humidity
55010;BME280;40903;51.638;7.528;2023-03-21T00:01:53;101139.41;;;9.93;100.00
55010;BME280;40903;51.638;7.528;2023-03-21T00:04:19;101135.56;;;9.94;100.00
55010;BME280;40903;51.638;7.528;2023-03-21T00:06:44;101138.88;;;9.86;100.00
55010;BME280;40903;51.638;7.528;2023-03-21T00:09:09;101136.97;;;9.91;100.00
55010;BME280;40903;51.638;7.528;2023-03-21T00:11:36;101127.44;;;9.89;100.00
55010;BME280;40903;51.638;7.528;2023-03-21T00:14:01;101129.06;;;9.85;100.00
55010;BME280;40903;51.638;7.528;2023-03-21T00:16:26;101121.41;;;9.92;100.00
55010;BME280;40903;51.638;7.528;2023-03-21T00:18:54;101121.41;;;9.97;100.00
55010;BME280;40903;51.638;7.528;2023-03-21T00:21:20;101123.06;;;9.93;100.00
55010;BME280;40903;51.638;7.528;2023-03-21T00:23:46;101124.69;;;9.94;100.00
55010;BME280;40903;51.638;7.528;2023-03-21T00:26:12;101119.78;;;9.96;100.00
55010;BME280;40903;51.638;7.528;2023-03-21T00:28:41;101115.16;;;9.96;100.00
55010;BME280;40903;51.638;7.528;2023-03-21T00:31:06;101105.06;;;9.97;100.00
55010;BME280;40903;51.638;7.528;2023-03-21T00:33:32;101111.34;;;10.02;100.00
55010;BME280;40903;51.638;7.528;2023-03-21T00:35:58;101100.16;;;9.99;100.00
55010;BME280;40903;51.638;7.528;2023-03-21T00:38:23;101101.28;;;10.03;100.00
55010;BME280;40903;51.638;7.528;2023-03-21T00:40:49;101105.63;;;9.99;100.00
55010;BME280;40903;51.638;7.528;2023-03-21T00:43:15;101097.44;;;10.04;100.00
55010;BME280;40903;51.638;7.528;2023-03-21T00:45:41;101091.44;;;9.97;100.00
55010;BME280;40903;51.638;7.528;2023-03-21T00:48:07;101089.00;;;9.95;100.00
55010;BME280;40903;51.638;7.528;2023-03-21T00:50:32;101088.97;;;10.00;100.00
55010;BME280;40903;51.638;7.528;2023-03-21T00:52:58;101088.44;;;9.98;100.00
55010;BME280;40903;51.638;7.528;2023-03-21T00:55:24;101076.44;;;9.99;100.00
55010;BME280;40903;51.638;7.528;2023-03-21T00:57:49;101079.47;;;10.03;100.00
55010;BME280;40903;51.638;7.528;2023-03-21T01:00:15;101080.00;;;10.00;100.00
55010;BME280;40903;51.638;7.528;2023-03-21T01:02:42;101073.47;;;9.96;100.00
55010;BME280;40903;51.638;7.528;2023-03-21T01:05:25;101072.41;;;10.02;100.00
55010;BME280;40903;51.638;7.528;2023-03-21T01:08:13;101079.75;;;10.01;100.00
55010;BME280;40903;51.638;7.528;2023-03-21T01:10:39;101076.19;;;10.01;100.00
55010;BME280;40903;51.638;7.528;2023-03-21T01:13:04;101067.19;;;10.00;100.00
55010;BME280;40903;51.638;7.528;2023-03-21T01:15:30;101068.00;;;9.96;100.00
55010;BME280;40903;51.638;7.528;2023-03-21T01:17:55;101071.03;;;9.94;100.00
55010;BME280;40903;51.638;7.528;2023-03-21T01:20:20;101060.09;;;9.99;100.00
55010;BME280;40903;51.638;7.528;2023-03-21T01:22:45;101065.28;;;10.01;100.00
55010;BME280;40903;51.638;7.528;2023-03-21T01:25:11;101067.75;;;10.02;100.00
55010;BME280;40903;51.638;7.528;2023-03-21T01:27:36;101063.66;;;10.00;100.00
55010;BME280;40903;51.638;7.528;2023-03-21T01:30:02;101060.94;;;10.05;100.00
55010;BME280;40903;51.638;7.528;2023-03-21T01:32:27;101058.75;;;10.07;99.31
55010;BME280;40903;51.638;7.528;2023-03-21T01:34:53;101056.06;;;10.02;99.87
55010;BME280;40903;51.638;7.528;2023-03-21T01:37:18;101063.13;;;10.03;99.46
55010;BME280;40903;51.638;7.528;2023-03-21T01:39:44;101053.88;;;10.04;98.99
55010;BME280;40903;51.638;7.528;2023-03-21T01:42:12;101051.66;;;10.01;99.28
55010;BME280;40903;51.638;7.528;2023-03-21T01:44:50;101054.38;;;10.01;98.24
55010;BME280;40903;51.638;7.528;2023-03-21T01:47:16;101041.34;;;10.03;98.17
55010;BME280;40903;51.638;7.528;2023-03-21T01:49:41;101038.88;;;10.01;98.48
55010;BME280;40903;51.638;7.528;2023-03-21T01:52:10;101042.44;;;10.02;98.07
55010;BME280;40903;51.638;7.528;2023-03-21T01:54:37;101044.31;;;10.01;98.04
55010;BME280;40903;51.638;7.528;2023-03-21T01:57:06;101052.22;;;10.03;96.53
55010;BME280;40903;51.638;7.528;2023-03-21T01:59:37;101050.03;;;10.00;97.13
55010;BME280;40903;51.638;7.528;2023-03-21T02:02:05;101036.94;;;10.07;96.79
55010;BME280;40903;51.638;7.528;2023-03-21T02:04:34;101040.78;;;10.06;96.23
55010;BME280;40903;51.638;7.528;2023-03-21T02:07:04;101042.41;;;10.07;95.47
55010;BME280;40903;51.638;7.528;2023-03-21T02:09:32;101043.75;;;10.04;96.16
55010;BME280;40903;51.638;7.528;2023-03-21T02:11:58;101040.78;;;10.06;95.63
55010;BME280;40903;51.638;7.528;2023-03-21T02:14:24;101034.75;;;10.14;95.65
55010;BME280;40903;51.638;7.528;2023-03-21T02:16:51;101030.91;;;10.20;95.66
55010;BME280;40903;51.638;7.528;2023-03-21T02:37:28;101015.97;;;10.07;98.45
55010;BME280;40903;51.638;7.528;2023-03-21T02:42:40;101006.06;;;10.26;96.90
55010;BME280;40903;51.638;7.528;2023-03-21T02:47:33;101015.34;;;10.20;96.73
55010;BME280;40903;51.638;7.528;2023-03-21T02:50:07;101017.53;;;10.23;96.72
55010;BME280;40903;51.638;7.528;2023-03-21T02:52:34;101012.63;;;10.25;96.68
55010;BME280;40903;51.638;7.528;2023-03-21T02:55:00;101015.09;;;10.22;97.00
55010;BME280;40903;51.638;7.528;2023-03-21T02:57:29;101005.56;;;10.14;97.90
55010;BME280;40903;51.638;7.528;2023-03-21T02:59:54;101008.53;;;10.23;96.90
55010;BME280;40903;51.638;7.528;2023-03-21T03:02:21;101009.66;;;10.17;97.33
55010;BME280;40903;51.638;7.528;2023-03-21T03:04:47;101004.72;;;10.24;96.77
55010;BME280;40903;51.638;7.528;2023-03-21T03:07:17;101007.75;;;10.17;97.45
55010;BME280;40903;51.638;7.528;2023-03-21T03:12:33;101001.50;;;10.12;98.86
55010;BME280;40903;51.638;7.528;2023-03-21T03:15:19;101004.22;;;10.17;98.42
55010;BME280;40903;51.638;7.528;2023-03-21T03:23:08;100997.13;;;10.16;98.88
55010;BME280;40903;51.638;7.528;2023-03-21T03:26:20;100997.09;;;10.21;98.36
55010;BME280;40903;51.638;7.528;2023-03-21T03:28:26;101002.81;;;10.19;99.22
55010;BME280;40903;51.638;7.528;2023-03-21T03:30:53;100998.72;;;10.22;98.90
55010;BME280;40903;51.638;7.528;2023-03-21T03:33:20;100993.31;;;10.12;99.59
55010;BME280;40903;51.638;7.528;2023-03-21T03:35:47;100993.88;;;10.09;100.00
55010;BME280;40903;51.638;7.528;2023-03-21T03:38:14;100991.16;;;10.09;100.00
55010;BME280;40903;51.638;7.528;2023-03-21T03:40:41;100983.22;;;10.17;99.99
55010;BME280;40903;51.638;7.528;2023-03-21T03:43:10;100988.44;;;10.14;100.00
55010;BME280;40903;51.638;7.528;2023-03-21T03:45:43;100985.72;;;10.14;100.00
55010;BME280;40903;51.638;7.528;2023-03-21T03:48:19;100978.63;;;10.08;100.00
55010;BME280;40903;51.638;7.528;2023-03-21T03:55:58;100973.19;;;10.08;100.00
55010;BME280;40903;51.638;7.528;2023-03-21T03:58:24;100966.16;;;10.02;100.00
55010;BME280;40903;51.638;7.528;2023-03-21T04:00:50;100963.97;;;9.99;100.00
55010;BME280;40903;51.638;7.528;2023-03-21T04:03:16;100967.75;;;9.98;100.00
55010;BME280;40903;51.638;7.528;2023-03-21T04:05:42;100966.41;;;9.95;100.00
55010;BME280;40903;51.638;7.528;2023-03-21T04:08:10;100961.25;;;9.94;100.00
55010;BME280;40903;51.638;7.528;2023-03-21T04:10:35;100958.50;;;9.99;100.00
55010;BME280;40903;51.638;7.528;2023-03-21T04:13:01;100957.94;;;9.97;100.00
55010;BME280;40903;51.638;7.528;2023-03-21T04:15:26;100950.91;;;9.91;100.00
55010;BME280;40903;51.638;7.528;2023-03-21T04:17:51;100953.59;;;9.96;100.00
55010;BME280;40903;51.638;7.528;2023-03-21T04:20:16;100959.63;;;9.93;100.00
55010;BME280;40903;51.638;7.528;2023-03-21T04:22:42;100953.38;;;9.92;100.00
55010;BME280;40903;51.638;7.528;2023-03-21T04:25:07;100953.09;;;9.89;100.00
55010;BME280;40903;51.638;7.528;2023-03-21T04:27:33;100958.50;;;9.94;100.00
55010;BME280;40903;51.638;7.528;2023-03-21T04:29:58;100943.22;;;9.98;100.00
55010;BME280;40903;51.638;7.528;2023-03-21T04:32:23;100957.41;;;9.95;100.00
55010;BME280;40903;51.638;7.528;2023-03-21T04:34:49;100955.78;;;9.94;100.00
55010;BME280;40903;51.638;7.528;2023-03-21T04:37:18;100958.56;;;9.89;100.00
55010;BME280;40903;51.638;7.528;2023-03-21T04:39:44;100955.84;;;9.84;100.00
55010;BME280;40903;51.638;7.528;2023-03-21T04:42:13;100953.09;;;9.89;100.00
55010;BME280;40903;51.638;7.528;2023-03-21T04:44:38;100948.22;;;9.86;100.00
55010;BME280;40903;51.638;7.528;2023-03-21T04:47:04;100956.41;;;9.81;100.00
55010;BME280;40903;51.638;7.528;2023-03-21T04:49:30;100954.22;;;9.78;100.00
55010;BME280;40903;51.638;7.528;2023-03-21T04:51:55;100951.00;;;9.71;100.00
55010;BME280;40903;51.638;7.528;2023-03-21T04:54:20;100944.19;;;9.68;100.00
55010;BME280;40903;51.638;7.528;2023-03-21T04:56:46;100934.13;;;9.64;100.00
55010;BME280;40903;51.638;7.528;2023-03-21T04:59:13;100938.22;;;9.67;100.00
55010;BME280;40903;51.638;7.528;2023-03-21T05:01:38;100936.31;;;9.72;100.00
55010;BME280;40903;51.638;7.528;2023-03-21T05:04:07;100931.66;;;9.77;100.00
55010;BME280;40903;51.638;7.528;2023-03-21T05:06:33;100935.69;;;9.80;100.00
55010;BME280;40903;51.638;7.528;2023-03-21T05:09:00;100928.09;;;9.77;100.00
55010;BME280;40903;51.638;7.528;2023-03-21T05:11:29;100936.53;;;9.75;100.00
55010;BME280;40903;51.638;7.528;2023-03-21T05:13:55;100930.31;;;9.70;100.00
55010;BME280;40903;51.638;7.528;2023-03-21T05:16:20;100931.16;;;9.66;100.00
55010;BME280;40903;51.638;7.528;2023-03-21T05:18:49;100931.38;;;9.74;100.00
55010;BME280;40903;51.638;7.528;2023-03-21T05:21:14;100932.19;;;9.79;100.00
55010;BME280;40903;51.638;7.528;2023-03-21T05:23:42;100922.91;;;9.75;100.00
55010;BME280;40903;51.638;7.528;2023-03-21T05:26:07;100928.94;;;9.77;100.00
55010;BME280;40903;51.638;7.528;2023-03-21T05:28:34;100925.38;;;9.77;100.00
55010;BME280;40903;51.638;7.528;2023-03-21T05:31:03;100927.31;;;9.76;100.00
55010;BME280;40903;51.638;7.528;2023-03-21T05:33:28;100926.16;;;9.82;100.00
55010;BME280;40903;51.638;7.528;2023-03-21T05:35:54;100928.31;;;9.85;100.00
55010;BME280;40903;51.638;7.528;2023-03-21T05:38:19;100937.03;;;9.87;100.00
55010;BME280;40903;51.638;7.528;2023-03-21T05:40:45;100929.59;;;9.98;100.00
55010;BME280;40903;51.638;7.528;2023-03-21T05:43:11;100928.28;;;9.95;100.00
55010;BME280;40903;51.638;7.528;2023-03-21T05:45:36;100935.88;;;9.98;100.00
55010;BME280;40903;51.638;7.528;2023-03-21T05:48:01;100937.25;;;10.06;100.00
55010;BME280;40903;51.638;7.528;2023-03-21T05:50:27;100941.06;;;10.05;100.00
55010;BME280;40903;51.638;7.528;2023-03-21T05:52:53;100938.28;;;10.10;100.00
55010;BME280;40903;51.638;7.528;2023-03-21T05:55:18;100938.88;;;10.07;100.00
55010;BME280;40903;51.638;7.528;2023-03-21T05:57:44;100940.50;;;10.08;100.00
55010;BME280;40903;51.638;7.528;2023-03-21T06:00:09;100940.78;;;10.06;100.00
55010;BME280;40903;51.638;7.528;2023-03-21T06:02:36;100935.88;;;10.08;100.00
55010;BME280;40903;51.638;7.528;2023-03-21T06:05:01;100939.41;;;10.09;100.00
55010;BME280;40903;51.638;7.528;2023-03-21T06:07:27;100935.00;;;10.13;100.00
55010;BME280;40903;51.638;7.528;2023-03-21T06:09:52;100932.28;;;10.13;100.00
55010;BME280;40903;51.638;7.528;2023-03-21T06:12:17;100941.03;;;10.10;100.00
55010;BME280;40903;51.638;7.528;2023-03-21T06:14:42;100938.03;;;10.11;100.00
55010;BME280;40903;51.638;7.528;2023-03-21T06:17:08;100931.22;;;10.09;100.00
55010;BME280;40903;51.638;7.528;2023-03-21T06:19:33;100937.25;;;10.06;100.00
55010;BME280;40903;51.638;7.528;2023-03-21T06:21:58;100932.34;;;10.03;100.00
55010;BME280;40903;51.638;7.528;2023-03-21T06:24:23;100936.72;;;10.04;100.00
55010;BME280;40903;51.638;7.528;2023-03-21T06:26:50;100935.63;;;10.05;100.00
55010;BME280;40903;51.638;7.528;2023-03-21T06:29:15;100932.56;;;10.11;100.00
55010;BME280;40903;51.638;7.528;2023-03-21T06:31:40;100943.16;;;10.18;100.00
55010;BME280;40903;51.638;7.528;2023-03-21T06:34:06;100941.50;;;10.22;100.00
55010;BME280;40903;51.638;7.528;2023-03-21T06:36:31;100940.69;;;10.21;100.00
55010;BME280;40903;51.638;7.528;2023-03-21T06:38:56;100939.03;;;10.20;100.00
55010;BME280;40903;51.638;7.528;2023-03-21T06:41:22;100943.13;;;10.23;100.00
55010;BME280;40903;51.638;7.528;2023-03-21T06:43:47;100938.19;;;10.25;100.00
55010;BME280;40903;51.638;7.528;2023-03-21T06:46:12;100943.38;;;10.26;100.00
55010;BME280;40903;51.638;7.528;2023-03-21T06:48:37;100936.53;;;10.29;100.00
55010;BME280;40903;51.638;7.528;2023-03-21T06:51:08;100941.97;;;10.29;100.00
55010;BME280;40903;51.638;7.528;2023-03-21T06:53:33;100934.91;;;10.28;100.00
55010;BME280;40903;51.638;7.528;2023-03-21T06:55:59;100942.31;;;10.22;100.00
55010;BME280;40903;51.638;7.528;2023-03-21T06:58:24;100933.06;;;10.18;100.00
55010;BME280;40903;51.638;7.528;2023-03-21T07:00:49;100936.63;;;10.19;100.00
55010;BME280;40903;51.638;7.528;2023-03-21T07:03:15;100931.94;;;10.24;100.00
55010;BME280;40903;51.638;7.528;2023-03-21T07:05:40;100932.22;;;10.23;100.00
55010;BME280;40903;51.638;7.528;2023-03-21T07:08:07;100936.03;;;10.22;100.00
55010;BME280;40903;51.638;7.528;2023-03-21T07:10:41;100936.31;;;10.20;100.00
55010;BME280;40903;51.638;7.528;2023-03-21T07:13:07;100940.44;;;10.18;100.00
55010;BME280;40903;51.638;7.528;2023-03-21T07:15:33;100947.00;;;10.17;100.00
55010;BME280;40903;51.638;7.528;2023-03-21T07:18:02;100943.75;;;10.15;100.00
55010;BME280;40903;51.638;7.528;2023-03-21T07:20:28;100941.28;;;10.13;100.00
55010;BME280;40903;51.638;7.528;2023-03-21T07:22:53;100946.72;;;10.13;100.00
55010;BME280;40903;51.638;7.528;2023-03-21T07:25:18;100948.63;;;10.13;100.00
55010;BME280;40903;51.638;7.528;2023-03-21T07:27:44;100947.25;;;10.15;100.00
55010;BME280;40903;51.638;7.528;2023-03-21T07:30:10;100948.09;;;10.16;100.00
55010;BME280;40903;51.638;7.528;2023-03-21T07:32:35;100944.53;;;10.15;100.00
55010;BME280;40903;51.638;7.528;2023-03-21T07:35:02;100942.63;;;10.16;100.00
55010;BME280;40903;51.638;7.528;2023-03-21T07:37:27;100947.78;;;10.22;100.00
55010;BME280;40903;51.638;7.528;2023-03-21T07:39:52;100942.31;;;10.22;100.00
55010;BME280;40903;51.638;7.528;2023-03-21T07:42:18;100941.22;;;10.23;100.00
55010;BME280;40903;51.638;7.528;2023-03-21T07:44:44;100937.09;;;10.26;100.00
55010;BME280;40903;51.638;7.528;2023-03-21T07:47:09;100941.97;;;10.29;100.00
55010;BME280;40903;51.638;7.528;2023-03-21T07:49:35;100936.00;;;10.32;100.00
55010;BME280;40903;51.638;7.528;2023-03-21T07:52:00;100940.88;;;10.35;100.00
55010;BME280;40903;51.638;7.528;2023-03-21T07:54:26;100947.94;;;10.36;100.00
55010;BME280;40903;51.638;7.528;2023-03-21T07:56:52;100942.75;;;10.34;100.00
55010;BME280;40903;51.638;7.528;2023-03-21T07:59:18;100935.69;;;10.33;100.00
55010;BME280;40903;51.638;7.528;2023-03-21T08:01:43;100940.91;;;10.30;100.00
55010;BME280;40903;51.638;7.528;2023-03-21T08:04:08;100948.53;;;10.33;100.00
55010;BME280;40903;51.638;7.528;2023-03-21T08:06:33;100946.59;;;10.33;100.00
55010;BME280;40903;51.638;7.528;2023-03-21T08:08:59;100947.41;;;10.34;100.00
55010;BME280;40903;51.638;7.528;2023-03-21T08:11:24;100942.50;;;10.36;100.00
55010;BME280;40903;51.638;7.528;2023-03-21T08:13:50;100952.03;;;10.38;100.00
55010;BME280;40903;51.638;7.528;2023-03-21T08:16:15;100945.44;;;10.44;100.00
55010;BME280;40903;51.638;7.528;2023-03-21T08:18:40;100943.53;;;10.45;100.00
55010;BME280;40903;51.638;7.528;2023-03-21T08:21:06;100948.97;;;10.45;100.00
55010;BME280;40903;51.638;7.528;2023-03-21T08:23:32;100946.78;;;10.47;100.00
55010;BME280;40903;51.638;7.528;2023-03-21T08:25:57;100951.38;;;10.51;100.00
55010;BME280;40903;51.638;7.528;2023-03-21T08:28:22;100959.78;;;10.55;100.00
55010;BME280;40903;51.638;7.528;2023-03-21T08:30:48;100949.41;;;10.57;100.00
55010;BME280;40903;51.638;7.528;2023-03-21T08:33:13;100943.69;;;10.58;100.00
55010;BME280;40903;51.638;7.528;2023-03-21T08:35:39;100944.72;;;10.67;100.00
55010;BME280;40903;51.638;7.528;2023-03-21T08:38:04;100941.75;;;10.64;100.00
55010;BME280;40903;51.638;7.528;2023-03-21T08:40:30;100935.97;;;10.65;100.00
55010;BME280;40903;51.638;7.528;2023-03-21T08:42:56;100937.06;;;10.69;100.00
55010;BME280;40903;51.638;7.528;2023-03-21T08:45:21;100944.38;;;10.74;100.00
55010;BME280;40903;51.638;7.528;2023-03-21T08:47:47;100938.88;;;10.79;100.00
55010;BME280;40903;51.638;7.528;2023-03-21T08:50:17;100934.72;;;10.86;100.00
55010;BME280;40903;51.638;7.528;2023-03-21T08:52:43;100931.09;;;10.96;100.00
55010;BME280;40903;51.638;7.528;2023-03-21T08:55:09;100932.19;;;10.95;100.00
55010;BME280;40903;51.638;7.528;2023-03-21T08:57:34;100919.41;;;10.90;100.00
55010;BME280;40903;51.638;7.528;2023-03-21T09:00:00;100926.78;;;10.90;100.00
55010;BME280;40903;51.638;7.528;2023-03-21T09:02:25;100931.38;;;10.94;100.00
55010;BME280;40903;51.638;7.528;2023-03-21T09:04:51;100929.38;;;11.05;100.00
55010;BME280;40903;51.638;7.528;2023-03-21T09:07:18;100936.91;;;11.13;100.00
55010;BME280;40903;51.638;7.528;2023-03-21T09:09:44;100937.94;;;11.22;100.00
55010;BME280;40903;51.638;7.528;2023-03-21T09:12:09;100925.59;;;11.24;100.00
55010;BME280;40903;51.638;7.528;2023-03-21T09:14:34;100921.72;;;11.30;100.00
55010;BME280;40903;51.638;7.528;2023-03-21T09:17:00;100926.94;;;11.27;100.00
55010;BME280;40903;51.638;7.528;2023-03-21T09:19:25;100927.97;;;11.31;100.00
55010;BME280;40903;51.638;7.528;2023-03-21T09:21:52;100926.25;;;11.40;100.00
55010;BME280;40903;51.638;7.528;2023-03-21T09:24:17;100922.41;;;11.41;100.00
55010;BME280;40903;51.638;7.528;2023-03-21T09:26:43;100925.66;;;11.43;100.00
55010;BME280;40903;51.638;7.528;2023-03-21T09:29:08;100918.50;;;11.47;100.00
55010;BME280;40903;51.638;7.528;2023-03-21T09:31:34;100922.00;;;11.52;100.00
55010;BME280;40903;51.638;7.528;2023-03-21T09:34:02;100924.16;;;11.55;100.00
55010;BME280;40903;51.638;7.528;2023-03-21T09:36:28;100917.25;;;11.63;100.00
55010;BME280;40903;51.638;7.528;2023-03-21T09:38:59;100930.91;;;11.63;100.00
55010;BME280;40903;51.638;7.528;2023-03-21T09:41:45;100928.06;;;11.73;100.00
55010;BME280;40903;51.638;7.528;2023-03-21T09:47:04;100916.41;;;11.85;100.00
55010;BME280;40903;51.638;7.528;2023-03-21T09:49:34;100923.59;;;11.81;100.00
55010;BME280;40903;51.638;7.528;2023-03-21T09:52:03;100921.97;;;11.80;100.00
55010;BME280;40903;51.638;7.528;2023-03-21T09:54:32;100929.25;;;11.85;100.00
55010;BME280;40903;51.638;7.528;2023-03-21T09:57:11;100924.03;;;11.88;100.00
55010;BME280;40903;51.638;7.528;2023-03-21T09:59:43;100931.44;;;11.88;100.00
55010;BME280;40903;51.638;7.528;2023-03-21T10:02:19;100927.78;;;11.92;100.00
55010;BME280;40903;51.638;7.528;2023-03-21T10:04:45;100926.75;;;11.88;100.00
55010;BME280;40903;51.638;7.528;2023-03-21T10:07:10;100933.25;;;11.74;100.00
55010;BME280;40903;51.638;7.528;2023-03-21T10:09:41;100927.47;;;11.75;100.00
55010;BME280;40903;51.638;7.528;2023-03-21T10:12:13;100931.28;;;11.79;100.00
55010;BME280;40903;51.638;7.528;2023-03-21T10:14:42;100922.75;;;11.81;100.00
55010;BME280;40903;51.638;7.528;2023-03-21T10:17:15;100922.47;;;11.82;100.00
55010;BME280;40903;51.638;7.528;2023-03-21T10:19:45;100917.53;;;11.84;100.00
55010;BME280;40903;51.638;7.528;2023-03-21T10:22:13;100916.41;;;11.85;100.00
55010;BME280;40903;51.638;7.528;2023-03-21T10:24:38;100922.69;;;11.86;100.00
55010;BME280;40903;51.638;7.528;2023-03-21T10:27:03;100921.38;;;11.83;100.00
55010;BME280;40903;51.638;7.528;2023-03-21T10:29:31;100924.97;;;11.79;100.00
55010;BME280;40903;51.638;7.528;2023-03-21T10:31:57;100922.53;;;11.77;100.00
55010;BME280;40903;51.638;7.528;2023-03-21T10:34:34;100920.34;;;11.79;100.00
55010;BME280;40903;51.638;7.528;2023-03-21T10:37:00;100916.78;;;11.79;100.00
55010;BME280;40903;51.638;7.528;2023-03-21T10:39:31;100907.19;;;11.81;100.00
55010;BME280;40903;51.638;7.528;2023-03-21T10:41:57;100907.94;;;11.87;100.00
55010;BME280;40903;51.638;7.528;2023-03-21T10:44:27;100900.47;;;11.92;100.00
55010;BME280;40903;51.638;7.528;2023-03-21T10:46:54;100901.94;;;12.03;100.00
55010;BME280;40903;51.638;7.528;2023-03-21T10:49:20;100895.59;;;12.08;100.00
55010;BME280;40903;51.638;7.528;2023-03-21T10:51:45;100893.63;;;12.13;100.00
55010;BME280;40903;51.638;7.528;2023-03-21T10:54:12;100892.00;;;12.12;100.00
55010;BME280;40903;51.638;7.528;2023-03-21T10:56:42;100886.72;;;12.16;100.00
55010;BME280;40903;51.638;7.528;2023-03-21T10:59:09;100882.97;;;12.12;100.00
55010;BME280;40903;51.638;7.528;2023-03-21T11:01:42;100880.59;;;12.05;100.00
55010;BME280;40903;51.638;7.528;2023-03-21T11:04:08;100879.56;;;12.01;100.00
55010;BME280;40903;51.638;7.528;2023-03-21T11:06:37;100877.34;;;12.03;100.00
55010;BME280;40903;51.638;7.528;2023-03-21T11:09:13;100872.72;;;12.04;100.00
55010;BME280;40903;51.638;7.528;2023-03-21T11:11:40;100868.50;;;12.11;100.00
55010;BME280;40903;51.638;7.528;2023-03-21T11:14:32;100871.53;;;12.10;100.00
55010;BME280;40903;51.638;7.528;2023-03-21T11:16:58;100870.91;;;12.13;100.00
55010;BME280;40903;51.638;7.528;2023-03-21T11:19:30;100866.28;;;12.13;100.00
55010;BME280;40903;51.638;7.528;2023-03-21T11:21:57;100855.63;;;12.12;100.00
55010;BME280;40903;51.638;7.528;2023-03-21T11:24:23;100852.28;;;12.15;100.00
55010;BME280;40903;51.638;7.528;2023-03-21T11:26:51;100849.28;;;12.16;100.00
55010;BME280;40903;51.638;7.528;2023-03-21T11:29:30;100848.69;;;12.19;100.00
55010;BME280;40903;51.638;7.528;2023-03-21T11:34:42;100846.69;;;12.25;100.00
55010;BME280;40903;51.638;7.528;2023-03-21T11:37:16;100834.25;;;12.32;100.00
55010;BME280;40903;51.638;7.528;2023-03-21T11:39:42;100831.53;;;12.32;100.00
55010;BME280;40903;51.638;7.528;2023-03-21T11:42:24;100822.28;;;12.28;100.00
55010;BME280;40903;51.638;7.528;2023-03-21T11:44:51;100823.09;;;12.29;100.00
55010;BME280;40903;51.638;7.528;2023-03-21T11:47:21;100823.59;;;12.31;100.00
55010;BME280;40903;51.638;7.528;2023-03-21T11:49:46;100821.31;;;12.38;100.00
55010;BME280;40903;51.638;7.528;2023-03-21T11:52:22;100815.56;;;12.39;100.00
55010;BME280;40903;51.638;7.528;2023-03-21T11:55:02;100820.59;;;12.46;100.00
55010;BME280;40903;51.638;7.528;2023-03-21T12:05:42;100806.69;;;12.74;100.00
55010;BME280;40903;51.638;7.528;2023-03-21T12:15:48;100779.56;;;13.05;100.00
55010;BME280;40903;51.638;7.528;2023-03-21T12:18:32;100782.50;;;13.08;100.00
55010;BME280;40903;51.638;7.528;2023-03-21T12:21:02;100784.34;;;13.13;100.00
55010;BME280;40903;51.638;7.528;2023-03-21T12:26:30;100778.84;;;13.26;100.00
55010;BME280;40903;51.638;7.528;2023-03-21T12:31:32;100767.19;;;13.34;98.63
55010;BME280;40903;51.638;7.528;2023-03-21T12:34:05;100765.13;;;13.40;98.83
55010;BME280;40903;51.638;7.528;2023-03-21T12:36:39;100762.16;;;13.50;99.49
55010;BME280;40903;51.638;7.528;2023-03-21T12:39:16;100769.47;;;13.54;95.80
55010;BME280;40903;51.638;7.528;2023-03-21T12:44:31;100767.84;;;13.53;92.31
55010;BME280;40903;51.638;7.528;2023-03-21T12:49:25;100764.03;;;13.41;94.69
55010;BME280;40903;51.638;7.528;2023-03-21T12:52:00;100761.56;;;13.39;93.45
55010;BME280;40903;51.638;7.528;2023-03-21T12:54:31;100762.19;;;13.36;91.22
55010;BME280;40903;51.638;7.528;2023-03-21T12:57:07;100757.34;;;13.33;91.58
55010;BME280;40903;51.638;7.528;2023-03-21T12:59:37;100759.16;;;13.38;92.72
55010;BME280;40903;51.638;7.528;2023-03-21T13:02:46;100757.91;;;13.44;91.62
55010;BME280;40903;51.638;7.528;2023-03-21T13:07:36;100751.09;;;13.55;91.61
55010;BME280;40903;51.638;7.528;2023-03-21T13:10:10;100751.28;;;13.58;89.15
55010;BME280;40903;51.638;7.528;2023-03-21T13:12:40;100750.06;;;13.64;88.84
55010;BME280;40903;51.638;7.528;2023-03-21T13:20:50;100736.44;;;13.37;85.77
55010;BME280;40903;51.638;7.528;2023-03-21T13:23:19;100725.38;;;13.29;85.04
55010;BME280;40903;51.638;7.528;2023-03-21T13:25:46;100728.91;;;13.29;86.56
55010;BME280;40903;51.638;7.528;2023-03-21T13:28:17;100735.16;;;13.21;86.36
55010;BME280;40903;51.638;7.528;2023-03-21T13:30:43;100731.69;;;13.16;85.99
55010;BME280;40903;51.638;7.528;2023-03-21T13:33:27;100729.78;;;13.16;85.88
55010;BME280;40903;51.638;7.528;2023-03-21T13:36:00;100728.03;;;13.20;85.04
55010;BME280;40903;51.638;7.528;2023-03-21T13:38:31;100710.63;;;13.16;83.70
55010;BME280;40903;51.638;7.528;2023-03-21T13:46:13;100709.91;;;13.11;84.04
55010;BME280;40903;51.638;7.528;2023-03-21T13:51:18;100706.34;;;13.10;85.14
55010;BME280;40903;51.638;7.528;2023-03-21T13:56:51;100695.06;;;13.25;84.14
55010;BME280;40903;51.638;7.528;2023-03-21T13:59:18;100691.13;;;13.31;82.35
55010;BME280;40903;51.638;7.528;2023-03-21T14:02:00;100679.69;;;13.16;81.53
55010;BME280;40903;51.638;7.528;2023-03-21T14:04:30;100670.56;;;13.07;81.52
55010;BME280;40903;51.638;7.528;2023-03-21T14:07:41;100679.38;;;13.04;83.60
55010;BME280;40903;51.638;7.528;2023-03-21T14:09:45;100671.38;;;13.07;84.62
55010;BME280;40903;51.638;7.528;2023-03-21T14:12:15;100666.72;;;13.08;81.34
55010;BME280;40903;51.638;7.528;2023-03-21T14:14:57;100664.66;;;13.13;82.16
55010;BME280;40903;51.638;7.528;2023-03-21T14:17:24;100660.81;;;13.14;81.39